Time;durP1;ratioP1;P1;durP2;ratioP2;P2;SDS_P1;SDS_P2;PMS_P1;PMS_P2;Temp;Humidity;BMP_temperature;BMP_pressure;BME280_temperature;BME280_humidity;BME280_pressure;Samples;Min_cycle;Max_cycle;Signal;HPM_P1;HPM_P2
2024/03/06 00:00:57;;;;;;;26.23;17.40;;;9.20;99.90;;;;;;4941058;29;20947;-61
2024/03/06 00:03:23;;;;;;;39.40;18.70;;;9.20;99.90;;;;;;4937722;28;20280;-61
2024/03/06 00:05:49;;;;;;;35.67;17.87;;;9.20;99.90;;;;;;4935713;29;20200;-61
2024/03/06 00:08:15;;;;;;;44.53;17.87;;;9.10;99.90;;;;;;4962952;28;20555;-62
2024/03/06 00:10:41;;;;;;;26.97;17.00;;;9.00;99.90;;;;;;4941998;29;20867;-61
2024/03/06 00:13:08;;;;;;;24.53;17.50;;;9.00;99.90;;;;;;4942599;29;20774;-61
2024/03/06 00:15:34;;;;;;;25.20;18.47;;;9.00;99.90;;;;;;4945255;29;20436;-61
2024/03/06 00:18:00;;;;;;;27.70;17.67;;;9.00;99.90;;;;;;4944151;29;20530;-62
2024/03/06 00:20:26;;;;;;;35.73;19.27;;;9.10;99.90;;;;;;4946226;29;20775;-61
2024/03/06 00:22:52;;;;;;;27.73;19.73;;;9.10;99.90;;;;;;4952805;29;20408;-62
2024/03/06 00:25:18;;;;;;;38.40;18.50;;;9.10;99.90;;;;;;4943045;29;20212;-62
2024/03/06 00:27:43;;;;;;;29.43;17.80;;;9.10;99.90;;;;;;4935977;29;20275;-61
2024/03/06 00:30:10;;;;;;;25.70;16.90;;;9.10;99.90;;;;;;4954177;29;20242;-62
2024/03/06 00:32:36;;;;;;;27.50;16.83;;;9.10;99.90;;;;;;4946813;29;20282;-61
2024/03/06 00:35:02;;;;;;;26.97;18.00;;;9.10;99.90;;;;;;4934301;29;20521;-62
2024/03/06 00:37:27;;;;;;;29.70;18.50;;;9.10;99.90;;;;;;4952328;29;20175;-61
2024/03/06 00:39:53;;;;;;;31.53;17.70;;;9.10;99.90;;;;;;4926288;29;20442;-61
2024/03/06 00:42:19;;;;;;;24.87;17.07;;;9.10;99.90;;;;;;4940029;29;20207;-62
2024/03/06 00:44:45;;;;;;;29.77;17.90;;;9.10;99.90;;;;;;4915357;29;20185;-61
2024/03/06 00:47:11;;;;;;;26.70;19.13;;;9.10;99.90;;;;;;4945623;29;20185;-62
2024/03/06 00:49:38;;;;;;;27.60;18.37;;;9.20;99.90;;;;;;4951739;29;20791;-61
2024/03/06 00:52:04;;;;;;;27.13;18.17;;;9.20;99.90;;;;;;4954217;29;20188;-62
2024/03/06 00:54:30;;;;;;;34.13;18.90;;;9.20;99.90;;;;;;4951472;29;20443;-61
2024/03/06 00:56:57;;;;;;;28.33;19.47;;;9.20;99.90;;;;;;4952697;29;20577;-62
2024/03/06 00:59:23;;;;;;;35.50;18.87;;;9.20;99.90;;;;;;4951408;29;21053;-62
2024/03/06 01:01:48;;;;;;;28.20;17.97;;;9.20;99.90;;;;;;4953375;29;20525;-62
2024/03/06 01:04:14;;;;;;;25.57;17.10;;;9.20;99.90;;;;;;4945610;29;20188;-62
2024/03/06 01:06:40;;;;;;;27.90;18.10;;;9.20;99.90;;;;;;4942672;29;20186;-61
2024/03/06 01:09:05;;;;;;;25.37;17.50;;;9.20;99.90;;;;;;4951741;29;20207;-61
2024/03/06 01:11:31;;;;;;;27.60;19.40;;;9.20;99.90;;;;;;4953026;29;20253;-61
2024/03/06 01:13:57;;;;;;;27.07;18.40;;;9.30;99.90;;;;;;4952279;29;20185;-62
2024/03/06 01:16:23;;;;;;;28.70;19.27;;;9.20;99.90;;;;;;4952403;28;20183;-62
2024/03/06 01:18:48;;;;;;;30.17;20.33;;;9.20;99.90;;;;;;4957086;29;20179;-61
2024/03/06 01:21:14;;;;;;;24.77;17.60;;;9.20;99.90;;;;;;4950233;29;20175;-62
2024/03/06 01:23:40;;;;;;;28.10;17.03;;;9.30;99.90;;;;;;4943788;29;20199;-61
2024/03/06 01:26:06;;;;;;;29.43;18.00;;;9.30;99.90;;;;;;4957802;29;20229;-62
2024/03/06 01:28:33;;;;;;;29.40;18.63;;;9.30;99.90;;;;;;4954505;29;20518;-61
2024/03/06 01:30:58;;;;;;;24.43;18.13;;;9.30;99.90;;;;;;4955835;29;20183;-61
2024/03/06 01:33:24;;;;;;;26.17;18.47;;;9.30;99.90;;;;;;4957454;29;20908;-61
2024/03/06 01:35:50;;;;;;;25.70;17.17;;;9.40;99.90;;;;;;4954799;29;20272;-61
2024/03/06 01:38:15;;;;;;;26.47;17.70;;;9.40;99.90;;;;;;4955615;29;20193;-61
2024/03/06 01:40:45;;;;;;;29.70;18.57;;;9.40;99.90;;;;;;4956620;29;20182;-61
2024/03/06 01:43:22;;;;;;;32.07;19.97;;;9.40;99.90;;;;;;4950971;29;20628;-61
2024/03/06 01:45:48;;;;;;;26.50;18.03;;;9.40;99.90;;;;;;4913976;29;20444;-61
2024/03/06 01:48:17;;;;;;;23.87;17.57;;;9.40;99.90;;;;;;4946018;29;20468;-61
2024/03/06 01:50:43;;;;;;;27.63;18.03;;;9.40;99.90;;;;;;4956536;29;20426;-61
2024/03/06 01:53:10;;;;;;;23.23;16.30;;;9.40;99.90;;;;;;4955525;29;20787;-61
2024/03/06 01:55:36;;;;;;;24.60;18.00;;;9.40;99.90;;;;;;4955446;29;20424;-62
2024/03/06 01:58:02;;;;;;;24.43;16.20;;;9.40;99.90;;;;;;4957058;29;20425;-62
2024/03/06 02:00:28;;;;;;;24.77;17.67;;;9.40;99.90;;;;;;4954567;29;20793;-62
2024/03/06 02:02:54;;;;;;;25.13;16.93;;;9.50;99.90;;;;;;4937612;29;20419;-61
2024/03/06 02:05:20;;;;;;;24.80;17.10;;;;;;;;;;4939889;29;20972;-62
2024/03/06 02:07:47;;;;;;;28.43;18.70;;;9.40;99.90;;;;;;4947794;29;20584;-61
2024/03/06 02:10:13;;;;;;;25.50;19.00;;;9.40;99.90;;;;;;4942322;29;20467;-61
2024/03/06 02:12:39;;;;;;;28.00;17.87;;;9.40;99.90;;;;;;4952901;29;20476;-61
2024/03/06 02:15:05;;;;;;;22.07;16.70;;;9.40;99.90;;;;;;4942891;29;20783;-61
2024/03/06 02:17:31;;;;;;;24.13;17.30;;;;;;;;;;4941539;29;20465;-61
2024/03/06 02:19:58;;;;;;;23.07;17.17;;;9.40;99.90;;;;;;4949136;29;20430;-61
2024/03/06 02:22:24;;;;;;;24.33;18.10;;;9.50;99.90;;;;;;4953783;29;20432;-62
2024/03/06 02:24:50;;;;;;;25.80;17.83;;;9.40;99.90;;;;;;4942209;29;20441;-62
2024/03/06 02:27:16;;;;;;;25.17;17.90;;;9.40;99.90;;;;;;4943559;29;20185;-61
2024/03/06 02:29:43;;;;;;;22.60;17.60;;;9.40;99.90;;;;;;4944956;29;20463;-62
2024/03/06 02:32:12;;;;;;;26.63;17.90;;;9.40;99.90;;;;;;4946040;29;20441;-62
2024/03/06 02:34:38;;;;;;;27.87;18.40;;;9.40;99.90;;;;;;4946867;29;20442;-61
2024/03/06 02:37:03;;;;;;;27.30;18.07;;;9.30;99.90;;;;;;4951131;29;20428;-61
2024/03/06 02:39:29;;;;;;;22.43;17.70;;;9.30;99.90;;;;;;4954607;29;20176;-62
2024/03/06 02:41:55;;;;;;;23.33;16.60;;;9.30;99.90;;;;;;4945426;29;20185;-61
2024/03/06 02:44:20;;;;;;;24.40;18.57;;;9.30;99.90;;;;;;4950416;29;20173;-62
2024/03/06 02:46:48;;;;;;;23.77;17.27;;;9.30;99.90;;;;;;4948698;29;20197;-61
2024/03/06 02:49:15;;;;;;;24.10;17.47;;;9.30;99.90;;;;;;4950412;29;20304;-62
2024/03/06 02:51:41;;;;;;;23.63;16.33;;;9.30;99.90;;;;;;4952955;29;20441;-61
2024/03/06 02:54:07;;;;;;;25.37;16.70;;;9.30;99.90;;;;;;4937028;29;20414;-62
2024/03/06 02:56:32;;;;;;;23.80;17.77;;;9.30;99.90;;;;;;4927002;29;20447;-61
2024/03/06 02:58:58;;;;;;;22.93;17.17;;;9.20;99.90;;;;;;4935779;29;20200;-61
2024/03/06 03:01:24;;;;;;;27.07;17.60;;;9.20;99.90;;;;;;4936934;29;20190;-62
2024/03/06 03:03:51;;;;;;;24.07;17.47;;;9.20;99.90;;;;;;4941608;29;20187;-61
2024/03/06 03:06:16;;;;;;;20.10;15.80;;;9.10;99.90;;;;;;4942070;29;20310;-62
2024/03/06 03:08:42;;;;;;;22.53;16.60;;;9.10;99.90;;;;;;4936434;29;20974;-61
2024/03/06 03:11:08;;;;;;;20.20;15.20;;;9.00;99.90;;;;;;4944254;29;20679;-61
2024/03/06 03:13:34;;;;;;;25.10;16.83;;;9.00;99.90;;;;;;4939768;29;20185;-61
2024/03/06 03:15:59;;;;;;;23.47;16.10;;;9.00;99.90;;;;;;4940560;29;20181;-61
2024/03/06 03:18:25;;;;;;;22.00;16.70;;;8.90;99.90;;;;;;4945971;29;20186;-62
2024/03/06 03:20:51;;;;;;;22.20;17.23;;;8.90;99.90;;;;;;4934710;29;20242;-61
2024/03/06 03:23:21;;;;;;;22.27;16.83;;;9.00;99.90;;;;;;4936274;29;20423;-61
2024/03/06 03:25:50;;;;;;;25.00;16.37;;;8.90;99.90;;;;;;4943606;29;20178;-61
2024/03/06 03:28:16;;;;;;;21.80;16.37;;;8.90;99.90;;;;;;4951054;29;20489;-62
2024/03/06 03:30:45;;;;;;;21.73;15.37;;;8.90;99.90;;;;;;4929664;29;21012;-61
2024/03/06 03:33:11;;;;;;;24.17;16.63;;;9.00;99.90;;;;;;4946165;29;20441;-61
2024/03/06 03:35:37;;;;;;;21.80;16.40;;;8.90;99.90;;;;;;4940527;29;20441;-61
2024/03/06 03:38:03;;;;;;;22.43;15.90;;;8.80;99.90;;;;;;4946958;29;20188;-61
2024/03/06 03:40:29;;;;;;;21.07;16.03;;;8.80;99.90;;;;;;4946989;29;20528;-62
2024/03/06 03:42:55;;;;;;;23.60;14.90;;;8.80;99.90;;;;;;4941525;29;21186;-61
2024/03/06 03:45:20;;;;;;;19.60;15.43;;;8.70;99.90;;;;;;4946283;29;20678;-62
2024/03/06 03:47:46;;;;;;;24.67;16.63;;;8.70;99.90;;;;;;4945647;29;20473;-62
2024/03/06 03:50:12;;;;;;;20.17;15.00;;;8.70;99.90;;;;;;4939073;29;20185;-61
2024/03/06 03:52:41;;;;;;;24.80;17.83;;;8.70;99.90;;;;;;4948882;29;20697;-61
2024/03/06 03:55:08;;;;;;;23.77;17.27;;;8.60;99.90;;;;;;4950804;29;20442;-62
2024/03/06 03:57:34;;;;;;;22.37;16.23;;;8.60;99.90;;;;;;4944025;29;20444;-62
2024/03/06 03:59:59;;;;;;;21.87;16.03;;;8.60;99.90;;;;;;4944688;29;20425;-61
2024/03/06 04:02:25;;;;;;;21.37;16.00;;;8.60;99.90;;;;;;4932391;29;20257;-61
2024/03/06 04:04:51;;;;;;;22.27;15.57;;;8.60;99.90;;;;;;4937677;29;20272;-62
2024/03/06 04:07:18;;;;;;;21.27;15.23;;;8.50;99.90;;;;;;4946368;29;20192;-62
2024/03/06 04:09:44;;;;;;;23.20;16.30;;;8.50;99.90;;;;;;4950375;29;20442;-61
2024/03/06 04:12:10;;;;;;;21.57;16.03;;;8.50;99.90;;;;;;4940316;29;20519;-62
2024/03/06 04:14:36;;;;;;;20.50;15.00;;;8.40;99.90;;;;;;4944894;29;20182;-61
2024/03/06 04:17:03;;;;;;;18.93;14.43;;;8.50;99.90;;;;;;4952560;29;20461;-61
2024/03/06 04:19:29;;;;;;;20.13;15.07;;;8.40;99.90;;;;;;4942542;29;20199;-62
2024/03/06 04:21:55;;;;;;;21.87;16.07;;;8.40;99.90;;;;;;4928039;29;20431;-62
2024/03/06 04:24:21;;;;;;;21.90;16.30;;;8.30;99.90;;;;;;4947598;29;20434;-62
2024/03/06 04:26:46;;;;;;;25.60;16.50;;;8.30;99.90;;;;;;4940216;29;20181;-62
2024/03/06 04:29:13;;;;;;;20.13;14.83;;;8.30;99.90;;;;;;4938965;29;20265;-62
2024/03/06 04:31:39;;;;;;;25.63;16.03;;;8.20;99.90;;;;;;4950601;29;20233;-61
2024/03/06 04:34:06;;;;;;;23.20;16.13;;;8.20;99.90;;;;;;4937303;29;20553;-61
2024/03/06 04:36:32;;;;;;;19.93;15.40;;;8.20;99.90;;;;;;4937809;29;20876;-61
2024/03/06 04:38:58;;;;;;;18.93;14.00;;;8.20;99.90;;;;;;4951651;29;20330;-61
2024/03/06 04:41:23;;;;;;;18.90;15.27;;;8.20;99.90;;;;;;4941035;29;20635;-61
2024/03/06 04:43:50;;;;;;;24.20;15.70;;;8.20;99.90;;;;;;4934626;29;20185;-61
2024/03/06 04:46:16;;;;;;;20.60;14.13;;;8.20;99.90;;;;;;4949467;29;20234;-61
2024/03/06 04:48:42;;;;;;;19.70;14.90;;;8.20;99.90;;;;;;4941891;29;20969;-61
2024/03/06 04:51:09;;;;;;;21.50;16.30;;;8.20;99.90;;;;;;4936848;29;20541;-61
2024/03/06 04:53:35;;;;;;;20.53;15.10;;;8.20;99.90;;;;;;4942143;29;20213;-62
2024/03/06 04:56:01;;;;;;;18.70;15.27;;;8.20;99.90;;;;;;4947694;29;20436;-61
2024/03/06 04:58:27;;;;;;;23.37;15.90;;;8.30;99.90;;;;;;4929357;29;20436;-62
2024/03/06 05:00:53;;;;;;;23.30;16.53;;;;;;;;;;4946395;29;20190;-62
2024/03/06 05:03:19;;;;;;;23.60;16.33;;;8.30;99.90;;;;;;4935073;29;20186;-62
2024/03/06 05:06:05;;;;;;;23.43;16.33;;;8.40;99.90;;;;;;4915301;29;21040;-61
2024/03/06 05:08:49;;;;;;;22.93;16.63;;;8.40;99.90;;;;;;4941967;29;20976;-62
2024/03/06 05:11:33;;;;;;;19.90;15.60;;;8.40;99.90;;;;;;4952364;29;20465;-62
2024/03/06 05:14:17;;;;;;;21.23;17.50;;;8.40;99.90;;;;;;4952231;29;20802;-62
2024/03/06 05:17:03;;;;;;;24.87;16.60;;;8.50;99.90;;;;;;4945958;29;20428;-62
2024/03/06 05:19:49;;;;;;;22.87;14.97;;;8.50;99.90;;;;;;4945726;29;20413;-61
2024/03/06 05:22:33;;;;;;;19.40;15.20;;;8.50;99.90;;;;;;4953374;29;20900;-62
2024/03/06 05:25:17;;;;;;;21.60;15.70;;;8.50;99.90;;;;;;4950426;29;20472;-62
2024/03/06 05:28:01;;;;;;;23.90;15.70;;;8.60;99.90;;;;;;4938278;29;20856;-62
2024/03/06 05:30:45;;;;;;;22.93;14.87;;;8.50;99.90;;;;;;4943784;29;20392;-61
2024/03/06 05:33:31;;;;;;;19.30;16.07;;;8.60;99.90;;;;;;4937020;29;20822;-62
2024/03/06 05:36:17;;;;;;;20.57;15.87;;;8.50;99.90;;;;;;4948051;29;20528;-62
2024/03/06 05:39:02;;;;;;;20.27;14.13;;;8.40;99.90;;;;;;4951229;29;20482;-61
2024/03/06 05:41:46;;;;;;;19.87;17.50;;;8.40;99.90;;;;;;4951151;29;20607;-61
2024/03/06 05:44:31;;;;;;;22.30;16.07;;;8.40;99.90;;;;;;4931123;29;20401;-61
2024/03/06 05:47:16;;;;;;;22.80;14.63;;;8.40;99.90;;;;;;4937752;29;20514;-61
2024/03/06 05:50:04;;;;;;;18.57;14.63;;;8.30;99.90;;;;;;4944888;29;20800;-61
2024/03/06 05:52:48;;;;;;;24.50;15.27;;;8.10;99.90;;;;;;4943779;29;20468;-61
2024/03/06 05:55:32;;;;;;;23.00;15.47;;;8.10;99.90;;;;;;4951745;29;20487;-62
2024/03/06 05:58:16;;;;;;;20.60;15.20;;;8.00;99.90;;;;;;4954038;29;20924;-62
2024/03/06 06:00:43;;;;;;;22.70;16.17;;;8.00;99.90;;;;;;4944437;29;20438;-62
2024/03/06 06:03:11;;;;;;;23.03;15.40;;;8.10;99.90;;;;;;4935793;29;20501;-61
2024/03/06 06:05:38;;;;;;;22.53;15.33;;;8.10;99.90;;;;;;4951071;29;20430;-61
2024/03/06 06:08:05;;;;;;;23.30;16.67;;;8.10;99.90;;;;;;4940071;29;20461;-61
2024/03/06 06:10:30;;;;;;;26.17;16.80;;;8.00;99.90;;;;;;4944197;29;20437;-62
2024/03/06 06:12:56;;;;;;;26.63;16.60;;;8.00;99.90;;;;;;4938560;29;20458;-61
2024/03/06 06:15:22;;;;;;;28.47;17.23;;;8.00;99.90;;;;;;4941274;29;20197;-62
2024/03/06 06:17:48;;;;;;;30.50;16.90;;;8.10;99.90;;;;;;4956005;29;20405;-61
2024/03/06 06:20:15;;;;;;;34.83;15.80;;;8.20;99.90;;;;;;4938711;29;20490;-62
2024/03/06 06:22:42;;;;;;;26.60;15.60;;;8.10;99.90;;;;;;4936780;29;20585;-62
2024/03/06 06:25:07;;;;;;;34.93;15.10;;;8.10;99.90;;;;;;4935952;29;20421;-61
2024/03/06 06:27:33;;;;;;;27.97;16.23;;;8.10;99.90;;;;;;4955976;29;20464;-62
2024/03/06 06:29:59;;;;;;;22.37;17.37;;;8.10;99.90;;;;;;4951823;29;20320;-61
2024/03/06 06:32:25;;;;;;;22.17;15.57;;;8.10;99.90;;;;;;4950745;29;20527;-62
2024/03/06 06:34:51;;;;;;;26.03;15.87;;;8.20;99.90;;;;;;4936649;29;20174;-60
2024/03/06 06:37:19;;;;;;;23.47;15.23;;;8.20;99.90;;;;;;4968874;28;20715;-61
2024/03/06 06:39:45;;;;;;;18.87;14.40;;;8.20;99.90;;;;;;4954710;29;20447;-61
2024/03/06 06:42:11;;;;;;;20.33;14.07;;;8.30;99.90;;;;;;4954249;29;20404;-61
2024/03/06 06:44:36;;;;;;;20.23;14.00;;;8.30;99.90;;;;;;4956450;29;20858;-62
2024/03/06 06:47:02;;;;;;;27.80;14.67;;;8.30;99.90;;;;;;4955656;29;20260;-61
2024/03/06 06:49:28;;;;;;;21.33;15.20;;;8.30;99.90;;;;;;4947556;29;20234;-62
2024/03/06 06:51:54;;;;;;;26.67;14.70;;;8.30;99.90;;;;;;4936010;29;20182;-60
2024/03/06 06:54:20;;;;;;;22.97;15.17;;;8.30;99.90;;;;;;4937278;29;20484;-61
2024/03/06 06:56:45;;;;;;;22.80;14.50;;;8.30;99.90;;;;;;4936694;29;20214;-61
2024/03/06 06:59:13;;;;;;;23.63;15.80;;;8.30;99.90;;;;;;4936321;29;20183;-61
2024/03/06 07:01:40;;;;;;;23.23;15.10;;;8.30;99.90;;;;;;4937072;29;20205;-61
2024/03/06 07:04:06;;;;;;;21.63;15.37;;;8.30;99.90;;;;;;4936097;29;20417;-61
2024/03/06 07:06:32;;;;;;;21.60;14.30;;;8.30;99.90;;;;;;4936663;29;20451;-63
2024/03/06 07:08:58;;;;;;;19.70;15.37;;;8.30;99.90;;;;;;4935723;29;20890;-62
2024/03/06 07:11:24;;;;;;;26.20;14.70;;;8.40;99.90;;;;;;4936365;29;20202;-63
2024/03/06 07:13:49;;;;;;;21.67;16.10;;;8.40;99.90;;;;;;4935364;29;20179;-61
2024/03/06 07:16:15;;;;;;;22.80;15.90;;;8.40;99.90;;;;;;4936458;29;20411;-63
2024/03/06 07:18:41;;;;;;;19.13;13.93;;;8.40;99.90;;;;;;4936318;29;20411;-63
2024/03/06 07:21:07;;;;;;;22.33;15.87;;;8.50;99.90;;;;;;4935878;29;20974;-62
2024/03/06 07:23:33;;;;;;;21.00;15.10;;;8.50;99.90;;;;;;4938908;29;20545;-62
2024/03/06 07:25:59;;;;;;;21.00;15.20;;;8.60;99.90;;;;;;4936645;29;20419;-62
2024/03/06 07:28:25;;;;;;;19.07;14.03;;;8.50;99.90;;;;;;4936007;29;20801;-63
2024/03/06 07:30:52;;;;;;;19.37;14.57;;;8.50;99.90;;;;;;4941709;29;20492;-62
2024/03/06 07:33:18;;;;;;;22.20;14.63;;;8.50;99.90;;;;;;4953430;29;20405;-63
2024/03/06 07:35:43;;;;;;;19.60;14.30;;;8.50;99.90;;;;;;4947459;29;20519;-62
2024/03/06 07:38:09;;;;;;;24.37;14.53;;;8.60;99.90;;;;;;4954579;29;20487;-62
2024/03/06 07:40:35;;;;;;;21.63;15.40;;;8.60;99.90;;;;;;4955437;29;20590;-63
2024/03/06 07:43:01;;;;;;;26.83;15.20;;;8.60;99.90;;;;;;4951791;29;20459;-62
2024/03/06 07:45:27;;;;;;;25.90;14.57;;;8.70;99.90;;;;;;4952545;29;20265;-62
2024/03/06 07:47:53;;;;;;;21.23;15.07;;;8.60;99.90;;;;;;4935310;29;20219;-61
2024/03/06 07:50:19;;;;;;;23.27;16.70;;;8.60;99.90;;;;;;4943957;29;20429;-61
2024/03/06 07:52:47;;;;;;;20.57;15.50;;;8.70;99.90;;;;;;4935672;29;20966;-62
2024/03/06 07:55:13;;;;;;;22.90;15.40;;;8.70;99.90;;;;;;4940725;29;20363;-60
2024/03/06 07:57:39;;;;;;;22.83;16.17;;;8.70;99.90;;;;;;4936445;29;20928;-60
2024/03/06 08:00:14;;;;;;;22.70;16.47;;;8.70;99.90;;;;;;4940877;29;20232;-60
2024/03/06 08:02:43;;;;;;;24.30;17.40;;;8.80;99.90;;;;;;4936022;29;20187;-62
2024/03/06 08:05:12;;;;;;;26.20;18.47;;;8.80;99.90;;;;;;4934756;29;20415;-61
2024/03/06 08:07:41;;;;;;;25.73;17.33;;;8.80;99.90;;;;;;4944754;29;20465;-61
2024/03/06 08:10:16;;;;;;;28.83;19.00;;;8.80;99.90;;;;;;4942458;29;20426;-61
2024/03/06 08:12:44;;;;;;;23.07;16.40;;;8.90;99.90;;;;;;4940786;29;20433;-62
2024/03/06 08:15:13;;;;;;;21.33;15.50;;;8.90;99.90;;;;;;4952382;29;20410;-62
2024/03/06 08:17:41;;;;;;;22.10;16.43;;;9.00;99.90;;;;;;4935426;29;20429;-62
2024/03/06 08:20:08;;;;;;;26.20;18.63;;;9.10;99.90;;;;;;4934335;29;20417;-62
2024/03/06 08:22:38;;;;;;;22.40;18.53;;;9.20;99.90;;;;;;4935557;29;20420;-61
2024/03/06 08:25:08;;;;;;;21.60;18.13;;;9.60;99.90;;;;;;4940295;29;20437;-61
2024/03/06 08:27:36;;;;;;;28.50;20.07;;;10.30;99.90;;;;;;4948611;29;20994;-67
2024/03/06 08:30:05;;;;;;;24.47;19.53;;;10.90;99.90;;;;;;4934476;29;20472;-62
2024/03/06 08:32:34;;;;;;;22.70;16.73;;;11.40;99.90;;;;;;4935913;29;20926;-62
2024/03/06 08:35:10;;;;;;;21.67;15.43;;;11.80;99.90;;;;;;4936425;29;20842;-61
2024/03/06 08:37:38;;;;;;;20.50;16.50;;;12.10;99.90;;;;;;4930638;29;20536;-63
2024/03/06 08:40:04;;;;;;;22.30;17.57;;;12.50;99.90;;;;;;4933353;29;20415;-62
2024/03/06 08:42:30;;;;;;;19.40;16.20;;;12.90;99.90;;;;;;4933767;29;20439;-63
2024/03/06 08:44:56;;;;;;;20.50;17.20;;;13.10;99.90;;;;;;4933308;29;20420;-62
2024/03/06 08:47:22;;;;;;;22.20;16.37;;;13.30;99.90;;;;;;4933854;29;20424;-62
2024/03/06 08:49:48;;;;;;;20.13;15.93;;;13.60;99.90;;;;;;4934403;29;20541;-62
2024/03/06 08:52:14;;;;;;;20.80;16.93;;;13.70;99.90;;;;;;4915655;29;20913;-62
2024/03/06 08:54:42;;;;;;;26.43;16.67;;;13.90;99.90;;;;;;4934525;29;20192;-63
2024/03/06 08:57:08;;;;;;;19.30;16.60;;;14.10;99.90;;;;;;4917066;29;20661;-62
2024/03/06 08:59:35;;;;;;;20.47;15.73;;;14.20;99.90;;;;;;4935082;29;20453;-62
2024/03/06 09:02:16;;;;;;;19.17;15.50;;;14.30;99.90;;;;;;4934298;29;20950;-62
2024/03/06 09:04:42;;;;;;;21.27;16.60;;;14.50;99.90;;;;;;4953381;29;20434;-62
2024/03/06 09:07:09;;;;;;;21.83;16.30;;;14.70;99.90;;;;;;4949026;29;20422;-62
2024/03/06 09:09:36;;;;;;;21.10;15.40;;;14.80;99.90;;;;;;4934462;29;20951;-62
2024/03/06 09:12:06;;;;;;;23.03;17.97;;;14.80;99.90;;;;;;4935600;29;20411;-62
2024/03/06 09:14:35;;;;;;;20.60;15.17;;;14.90;99.90;;;;;;4934604;29;20404;-62
2024/03/06 09:17:01;;;;;;;18.53;15.67;;;15.50;99.90;;;;;;4925920;29;20450;-63
2024/03/06 09:19:27;;;;;;;21.10;16.67;;;;;;;;;;4934515;29;20783;-63
2024/03/06 09:21:53;;;;;;;19.50;17.20;;;15.00;99.90;;;;;;4936228;29;20427;-63
2024/03/06 09:24:22;;;;;;;21.97;18.07;;;14.90;99.90;;;;;;4934303;29;20423;-63
2024/03/06 09:26:51;;;;;;;20.30;17.60;;;14.60;99.90;;;;;;4934581;29;20475;-63
2024/03/06 09:29:17;;;;;;;22.90;17.90;;;14.40;99.90;;;;;;4933665;29;20480;-63
2024/03/06 09:31:43;;;;;;;22.50;18.10;;;14.10;99.90;;;;;;4934923;29;20509;-63
2024/03/06 09:34:12;;;;;;;22.40;17.37;;;13.90;99.90;;;;;;4934212;29;20489;-63
2024/03/06 09:36:49;;;;;;;23.07;17.07;;;13.70;99.90;;;;;;4935538;29;20186;-63
2024/03/06 09:39:16;;;;;;;24.20;17.33;;;13.50;99.90;;;;;;4938316;29;20914;-63
2024/03/06 09:41:46;;;;;;;26.93;17.50;;;13.50;99.90;;;;;;4938487;29;20406;-63
2024/03/06 09:44:13;;;;;;;25.80;16.57;;;13.50;99.90;;;;;;4938607;29;20457;-63
2024/03/06 09:46:42;;;;;;;22.07;17.77;;;13.70;99.90;;;;;;4938270;29;20425;-63
2024/03/06 09:49:09;;;;;;;21.70;18.70;;;13.90;99.90;;;;;;4927017;29;20560;-63
2024/03/06 09:51:36;;;;;;;22.10;16.60;;;14.20;99.90;;;;;;4937928;29;20486;-63
2024/03/06 09:54:04;;;;;;;24.20;17.50;;;14.50;99.90;;;;;;4937507;29;20406;-62
2024/03/06 09:56:30;;;;;;;23.23;16.87;;;14.70;99.90;;;;;;4937411;29;20789;-63
2024/03/06 09:58:55;;;;;;;26.73;18.37;;;15.00;99.90;;;;;;4936764;29;20454;-63
2024/03/06 10:01:24;;;;;;;20.27;16.50;;;15.20;99.90;;;;;;4937269;29;20185;-63
2024/03/06 10:03:50;;;;;;;21.80;18.03;;;15.60;99.90;;;;;;4937336;29;20181;-63
2024/03/06 10:06:16;;;;;;;22.60;16.87;;;15.90;99.90;;;;;;4936793;29;20406;-62
2024/03/06 10:08:43;;;;;;;19.10;16.97;;;16.20;99.90;;;;;;4937083;29;20657;-62
2024/03/06 10:11:10;;;;;;;21.90;18.17;;;16.50;99.90;;;;;;4936630;29;20425;-62
2024/03/06 10:13:36;;;;;;;20.60;16.03;;;16.80;98.00;;;;;;4920309;29;20766;-62
2024/03/06 10:16:09;;;;;;;20.83;15.90;;;17.00;98.50;;;;;;4936791;29;20413;-62
2024/03/06 10:18:36;;;;;;;22.90;17.93;;;17.10;96.30;;;;;;4938604;29;20447;-62
2024/03/06 10:21:02;;;;;;;19.00;16.20;;;17.20;96.60;;;;;;4936757;29;20417;-62
2024/03/06 10:23:29;;;;;;;17.67;15.40;;;17.40;94.70;;;;;;4937706;29;20480;-62
2024/03/06 10:25:55;;;;;;;15.20;12.27;;;17.50;94.60;;;;;;4937764;29;20742;-62
2024/03/06 10:28:22;;;;;;;17.30;13.60;;;17.60;90.30;;;;;;4919034;29;20483;-63
2024/03/06 10:30:49;;;;;;;17.50;14.13;;;17.50;89.30;;;;;;4937218;29;20906;-62
2024/03/06 10:33:20;;;;;;;14.43;12.17;;;17.50;90.40;;;;;;4936241;29;20449;-62
2024/03/06 10:35:51;;;;;;;15.90;13.10;;;17.70;87.90;;;;;;4937168;29;20406;-63
2024/03/06 10:38:20;;;;;;;15.33;13.27;;;17.80;86.50;;;;;;4936484;29;20406;-63
2024/03/06 10:40:46;;;;;;;15.87;14.23;;;17.90;88.20;;;;;;4937152;29;20784;-62
2024/03/06 10:43:12;;;;;;;17.40;14.37;;;18.00;87.90;;;;;;4936603;29;20413;-62
2024/03/06 10:45:58;;;;;;;17.37;14.90;;;17.80;81.50;;;;;;4937199;29;20972;-62
2024/03/06 10:48:27;;;;;;;15.40;13.63;;;17.70;87.00;;;;;;4942762;29;20471;-62
2024/03/06 10:50:54;;;;;;;14.60;12.90;;;17.70;84.00;;;;;;4939112;29;20893;-62
2024/03/06 10:53:23;;;;;;;12.17;10.63;;;17.50;84.60;;;;;;4955507;29;20400;-62
2024/03/06 10:55:50;;;;;;;12.40;11.20;;;17.50;83.70;;;;;;4956235;29;20416;-62
2024/03/06 10:58:16;;;;;;;15.93;11.70;;;17.60;83.10;;;;;;4955475;29;20472;-62
2024/03/06 11:00:48;;;;;;;15.43;13.73;;;17.50;83.30;;;;;;4938967;29;20826;-63
2024/03/06 11:03:15;;;;;;;12.37;10.83;;;17.30;82.40;;;;;;4955371;29;20425;-62
2024/03/06 11:05:46;;;;;;;12.60;11.20;;;17.20;87.50;;;;;;4955996;29;20533;-62
2024/03/06 11:08:14;;;;;;;13.37;11.97;;;17.40;87.20;;;;;;4922024;29;20464;-62
2024/03/06 11:10:42;;;;;;;12.47;11.27;;;17.70;84.30;;;;;;4953533;29;20435;-63
2024/03/06 11:13:32;;;;;;;14.47;12.30;;;17.70;82.40;;;;;;4935777;29;20452;-62
2024/03/06 11:16:01;;;;;;;14.50;12.23;;;17.80;84.10;;;;;;4947946;29;20428;-62
2024/03/06 11:18:29;;;;;;;14.93;12.40;;;17.80;82.80;;;;;;4954359;29;20429;-62
2024/03/06 11:21:04;;;;;;;13.50;11.93;;;17.60;82.20;;;;;;4955825;29;20452;-62
2024/03/06 11:23:33;;;;;;;13.63;12.23;;;17.70;84.30;;;;;;4955448;29;20451;-62
2024/03/06 11:26:05;;;;;;;14.37;12.87;;;17.90;85.00;;;;;;4955654;29;20413;-63
2024/03/06 11:28:34;;;;;;;13.20;11.93;;;17.90;81.10;;;;;;4955536;29;20515;-63
2024/03/06 11:31:02;;;;;;;14.53;11.87;;;17.40;83.20;;;;;;4956015;29;20440;-62
2024/03/06 11:33:55;;;;;;;13.73;11.63;;;17.60;84.60;;;;;;4952245;29;20428;-63
2024/03/06 11:36:22;;;;;;;13.77;11.90;;;17.80;86.70;;;;;;4954769;29;20409;-62
2024/03/06 11:38:59;;;;;;;13.50;11.40;;;18.10;84.90;;;;;;4955516;29;20425;-63
2024/03/06 11:41:30;;;;;;;355.37;229.57;;;18.40;81.70;;;;;;4952091;29;20413;-62
2024/03/06 11:43:58;;;;;;;113.20;77.10;;;18.30;80.80;;;;;;4945016;29;20410;-63
2024/03/06 11:46:57;;;;;;;73.23;52.10;;;18.50;82.40;;;;;;4923531;29;20802;-62
2024/03/06 11:49:32;;;;;;;15.37;13.80;;;18.80;84.00;;;;;;4934840;29;20461;-63
2024/03/06 11:52:04;;;;;;;16.00;13.00;;;19.00;79.10;;;;;;4934582;29;20521;-63
2024/03/06 11:54:31;;;;;;;17.37;13.20;;;19.20;81.00;;;;;;4952910;29;20419;-63
2024/03/06 11:56:59;;;;;;;16.00;13.27;;;19.30;78.90;;;;;;4954921;29;20411;-62
2024/03/06 11:59:26;;;;;;;13.30;11.90;;;19.50;77.30;;;;;;4934524;29;20485;-62
2024/03/06 12:01:53;;;;;;;14.40;12.90;;;19.50;74.00;;;;;;4935357;29;20766;-63
2024/03/06 12:04:20;;;;;;;13.53;12.20;;;19.40;75.40;;;;;;4934304;29;20502;-62
2024/03/06 12:06:46;;;;;;;14.33;12.87;;;19.20;73.30;;;;;;4935093;29;20803;-63
2024/03/06 12:09:13;;;;;;;15.17;13.60;;;19.00;74.90;;;;;;4934497;29;20477;-62
2024/03/06 12:11:39;;;;;;;14.20;12.80;;;19.10;75.50;;;;;;4935234;29;20474;-63
2024/03/06 12:14:05;;;;;;;14.30;12.90;;;19.10;75.20;;;;;;4934952;29;20743;-62
2024/03/06 12:16:30;;;;;;;13.57;12.17;;;19.10;75.50;;;;;;4934713;29;20185;-62
2024/03/06 12:18:59;;;;;;;15.70;14.10;;;19.20;79.20;;;;;;4935169;29;20409;-62
2024/03/06 12:21:32;;;;;;;17.77;15.97;;;19.40;82.40;;;;;;4934219;29;20192;-61
2024/03/06 12:24:08;;;;;;;79.73;61.37;;;19.60;83.90;;;;;;4935096;29;20414;-61
2024/03/06 12:26:34;;;;;;;19.13;16.83;;;19.70;79.20;;;;;;4934976;29;20417;-62
2024/03/06 12:29:11;;;;;;;19.13;17.00;;;19.70;79.30;;;;;;4917556;29;20466;-61
2024/03/06 12:31:39;;;;;;;20.20;18.10;;;19.60;79.30;;;;;;4933889;29;20418;-61
2024/03/06 12:34:06;;;;;;;21.43;19.23;;;19.30;81.00;;;;;;4935310;29;20496;-60
2024/03/06 12:36:32;;;;;;;20.93;18.83;;;19.20;85.10;;;;;;4934528;29;20445;-61
2024/03/06 12:39:03;;;;;;;22.77;20.40;;;19.20;81.00;;;;;;4934947;29;20414;-61
2024/03/06 12:41:29;;;;;;;21.23;19.13;;;19.10;82.20;;;;;;4916759;29;21241;-61